Time;durP1;ratioP1;P1;durP2;ratioP2;P2;SDS_P1;SDS_P2;PMS_P1;PMS_P2;Temp;Humidity;BMP_temperature;BMP_pressure;BME280_temperature;BME280_humidity;BME280_pressure;Samples;Min_cycle;Max_cycle;Signal;HPM_P1;HPM_P2
2022/03/07 00:02:12;;;;;;;8.52;5.65;;;0.40;74.80;;;;;;4945835;29;20027;-87
2022/03/07 00:04:38;;;;;;;9.05;5.65;;;0.40;74.90;;;;;;4940643;28;20078;-89
2022/03/07 00:07:04;;;;;;;8.55;5.53;;;0.40;74.90;;;;;;4947293;28;20031;-88
2022/03/07 00:09:29;;;;;;;7.97;6.10;;;0.40;74.90;;;;;;4969112;28;20493;-87
2022/03/07 00:11:55;;;;;;;9.13;6.03;;;0.30;74.80;;;;;;4956369;28;20496;-88
2022/03/07 00:14:21;;;;;;;8.73;6.28;;;0.30;74.80;;;;;;4941650;29;20248;-87
2022/03/07 00:16:47;;;;;;;9.23;6.65;;;0.30;74.80;;;;;;4957554;29;20395;-87
2022/03/07 00:19:12;;;;;;;9.75;6.10;;;0.30;74.80;;;;;;4949812;28;20749;-88
2022/03/07 00:21:39;;;;;;;9.70;6.43;;;0.20;74.60;;;;;;4954626;28;20114;-89
2022/03/07 00:24:06;;;;;;;9.27;6.63;;;0.20;74.70;;;;;;4954648;28;20111;-88
2022/03/07 00:26:32;;;;;;;8.82;5.80;;;0.20;74.80;;;;;;4956596;28;20039;-88
2022/03/07 00:28:58;;;;;;;8.65;6.22;;;0.20;74.80;;;;;;4938068;28;20207;-88
2022/03/07 00:31:23;;;;;;;8.90;6.13;;;0.20;74.70;;;;;;4955728;29;20031;-87
2022/03/07 00:33:50;;;;;;;8.52;5.97;;;0.10;74.50;;;;;;4939180;29;20114;-87
2022/03/07 00:36:17;;;;;;;9.95;7.13;;;0.10;74.50;;;;;;4939264;29;20407;-88
2022/03/07 00:38:42;;;;;;;14.32;6.35;;;0.10;74.60;;;;;;4938071;29;20027;-87
2022/03/07 00:41:09;;;;;;;10.65;6.57;;;0.10;74.60;;;;;;4937461;29;20035;-88
2022/03/07 00:43:35;;;;;;;10.45;6.80;;;0.10;74.60;;;;;;4955251;29;20039;-88
2022/03/07 00:46:02;;;;;;;9.10;6.05;;;0.00;74.40;;;;;;4957477;28;20181;-88
2022/03/07 00:48:28;;;;;;;8.02;6.10;;;0.00;74.40;;;;;;4939422;29;20028;-88
2022/03/07 00:50:53;;;;;;;10.43;7.15;;;0.00;74.30;;;;;;4955118;28;20066;-87
2022/03/07 00:53:22;;;;;;;8.95;6.75;;;0.00;74.30;;;;;;4945840;29;20031;-88
2022/03/07 00:55:48;;;;;;;11.32;6.70;;;0.00;74.20;;;;;;4939057;29;20126;-88
2022/03/07 00:58:13;;;;;;;10.15;6.82;;;-0.10;74.20;;;;;;4937806;29;20074;-87
2022/03/07 01:00:40;;;;;;;9.43;6.68;;;0.00;74.10;;;;;;4954786;28;20400;-87
2022/03/07 01:03:06;;;;;;;9.35;7.47;;;-0.10;73.90;;;;;;4955589;29;20123;-87
2022/03/07 01:05:32;;;;;;;10.18;7.47;;;-0.10;73.90;;;;;;4956208;28;20118;-87
2022/03/07 01:07:58;;;;;;;12.02;8.00;;;-0.10;74.00;;;;;;4953812;29;20051;-88
2022/03/07 01:10:24;;;;;;;11.32;7.80;;;-0.10;74.00;;;;;;4964451;28;20109;-87
2022/03/07 01:12:50;;;;;;;13.55;8.30;;;-0.10;73.90;;;;;;4976924;28;20055;-87
2022/03/07 01:15:16;;;;;;;11.57;7.93;;;0.00;74.00;;;;;;4966946;29;20322;-87
2022/03/07 01:17:42;;;;;;;14.10;7.55;;;0.00;74.00;;;;;;4959270;29;20043;-87
2022/03/07 01:20:09;;;;;;;12.15;7.53;;;0.00;74.20;;;;;;4958905;28;20039;-89
2022/03/07 01:22:35;;;;;;;13.43;8.23;;;0.00;74.30;;;;;;4969475;28;20063;-88
2022/03/07 01:25:02;;;;;;;12.90;7.97;;;0.00;74.20;;;;;;4957928;28;20437;-88
2022/03/07 01:27:28;;;;;;;11.40;7.18;;;0.00;74.10;;;;;;4955217;28;20066;-87
2022/03/07 01:29:54;;;;;;;12.05;7.57;;;0.00;74.10;;;;;;4939890;29;20086;-87
2022/03/07 01:32:19;;;;;;;15.75;7.95;;;0.00;74.00;;;;;;4939796;29;20035;-88
2022/03/07 01:34:45;;;;;;;12.60;7.80;;;0.00;74.10;;;;;;4956624;29;20063;-87
2022/03/07 01:37:10;;;;;;;11.05;7.75;;;0.00;74.30;;;;;;4939078;29;20110;-87
2022/03/07 01:39:36;;;;;;;11.13;7.30;;;0.00;74.30;;;;;;4955197;28;20118;-88
2022/03/07 01:42:02;;;;;;;11.80;7.75;;;0.00;74.40;;;;;;4956803;28;20038;-88
2022/03/07 01:44:29;;;;;;;13.05;7.85;;;0.00;74.40;;;;;;4956781;29;20117;-87
2022/03/07 01:46:56;;;;;;;14.25;8.50;;;0.00;74.30;;;;;;4958019;28;20027;-87
2022/03/07 01:49:22;;;;;;;10.93;7.82;;;0.00;74.30;;;;;;4953879;28;20118;-88
2022/03/07 01:51:48;;;;;;;13.52;7.63;;;0.00;74.30;;;;;;4956850;28;20070;-88
2022/03/07 01:54:17;;;;;;;11.57;8.02;;;0.00;74.30;;;;;;4956855;28;20098;-88
2022/03/07 01:56:45;;;;;;;10.48;7.95;;;0.00;74.30;;;;;;4955852;28;20035;-88
2022/03/07 01:59:12;;;;;;;12.25;8.50;;;-0.10;74.30;;;;;;4955270;28;20042;-88
2022/03/07 02:01:38;;;;;;;12.18;7.47;;;-0.10;74.40;;;;;;4947284;29;20035;-88
2022/03/07 02:04:04;;;;;;;11.50;7.97;;;-0.10;74.20;;;;;;4959834;28;20042;-88
2022/03/07 02:06:30;;;;;;;14.13;7.85;;;-0.10;74.20;;;;;;4939371;29;20037;-87
2022/03/07 02:08:57;;;;;;;11.98;7.97;;;-0.10;74.40;;;;;;4952924;28;20023;-88
2022/03/07 02:11:24;;;;;;;14.55;8.63;;;-0.10;74.50;;;;;;4955981;29;20032;-87
2022/03/07 02:13:50;;;;;;;10.35;7.95;;;-0.10;74.70;;;;;;4954035;29;20414;-88
2022/03/07 02:16:17;;;;;;;12.18;8.13;;;-0.20;74.70;;;;;;4954280;29;20087;-88
2022/03/07 02:18:43;;;;;;;12.13;8.00;;;-0.20;74.90;;;;;;4953831;29;20046;-88
2022/03/07 02:21:17;;;;;;;12.40;7.78;;;-0.20;75.00;;;;;;4954559;28;20098;-88
2022/03/07 02:23:44;;;;;;;10.23;7.55;;;-0.20;75.40;;;;;;4954979;28;20038;-88
2022/03/07 02:26:12;;;;;;;10.23;6.75;;;-0.20;75.40;;;;;;4970665;28;20053;-87
2022/03/07 02:28:40;;;;;;;11.40;6.90;;;-0.20;75.40;;;;;;4959028;28;20483;-88
2022/03/07 02:31:06;;;;;;;8.02;6.18;;;-0.20;75.50;;;;;;4954525;29;20039;-87
2022/03/07 02:33:33;;;;;;;10.75;7.10;;;-0.30;75.60;;;;;;4955151;29;20028;-88
2022/03/07 02:35:59;;;;;;;9.85;6.82;;;-0.30;75.70;;;;;;4963240;28;20042;-87
2022/03/07 02:38:24;;;;;;;8.65;6.30;;;-0.30;75.70;;;;;;4954640;28;20035;-87
2022/03/07 02:40:50;;;;;;;9.63;6.50;;;-0.30;75.90;;;;;;4938748;29;20669;-88
2022/03/07 02:43:16;;;;;;;8.73;5.82;;;-0.30;76.10;;;;;;4938166;29;20122;-87
2022/03/07 02:45:44;;;;;;;10.75;6.38;;;-0.30;76.20;;;;;;4956667;29;20043;-89
2022/03/07 02:48:10;;;;;;;8.77;5.93;;;-0.30;76.30;;;;;;4953063;28;20031;-89
2022/03/07 02:50:35;;;;;;;11.57;5.95;;;-0.40;76.30;;;;;;4955528;28;20043;-88
2022/03/07 02:53:01;;;;;;;8.60;5.55;;;-0.40;76.50;;;;;;4955047;28;20042;-88
2022/03/07 02:55:27;;;;;;;10.02;6.15;;;-0.40;76.50;;;;;;4938884;29;20526;-88
2022/03/07 02:57:52;;;;;;;8.48;5.80;;;-0.50;76.60;;;;;;4950867;28;20042;-88
2022/03/07 03:00:18;;;;;;;8.45;5.93;;;-0.50;77.00;;;;;;4955983;28;20031;-88
2022/03/07 03:02:44;;;;;;;8.40;5.90;;;-0.40;77.10;;;;;;4959139;29;20047;-87
2022/03/07 03:05:10;;;;;;;7.25;5.30;;;-0.50;77.10;;;;;;4942178;29;20039;-88
2022/03/07 03:07:36;;;;;;;9.02;5.35;;;-0.50;77.30;;;;;;4957288;29;20024;-88
2022/03/07 03:10:02;;;;;;;7.95;5.22;;;-0.50;77.40;;;;;;4941273;29;20533;-89
2022/03/07 03:12:28;;;;;;;8.10;5.55;;;-0.50;77.60;;;;;;4956653;28;20452;-88
2022/03/07 03:14:54;;;;;;;7.90;5.40;;;-0.50;77.70;;;;;;4958545;29;20023;-87
2022/03/07 03:17:20;;;;;;;8.32;5.38;;;-0.50;77.80;;;;;;4946739;29;20122;-87
2022/03/07 03:19:46;;;;;;;7.38;5.40;;;-0.50;77.80;;;;;;4940712;29;20059;-87
2022/03/07 03:22:12;;;;;;;8.90;5.95;;;-0.50;78.00;;;;;;4956838;28;20137;-87
2022/03/07 03:24:38;;;;;;;7.55;4.88;;;-0.60;78.00;;;;;;4945727;29;20079;-88
2022/03/07 03:27:04;;;;;;;9.80;5.22;;;-0.60;78.10;;;;;;4939703;29;20059;-88
2022/03/07 03:29:30;;;;;;;6.65;4.63;;;-0.60;78.10;;;;;;4940643;29;20040;-87
2022/03/07 03:31:56;;;;;;;9.07;5.13;;;-0.60;78.20;;;;;;4940422;29;20027;-87
2022/03/07 03:34:22;;;;;;;8.00;4.70;;;-0.60;78.10;;;;;;4957738;29;20029;-87
2022/03/07 03:36:48;;;;;;;6.90;4.90;;;-0.60;78.20;;;;;;4958132;29;20532;-88
2022/03/07 03:39:14;;;;;;;6.07;4.75;;;-0.60;78.30;;;;;;4951152;28;20035;-88
2022/03/07 03:41:40;;;;;;;6.13;5.00;;;-0.70;78.30;;;;;;4956301;28;20059;-87
2022/03/07 03:44:05;;;;;;;8.15;4.68;;;-0.70;78.30;;;;;;4941050;29;20042;-88
2022/03/07 03:46:31;;;;;;;6.03;4.78;;;-0.70;78.50;;;;;;4957609;29;20043;-87
2022/03/07 03:48:57;;;;;;;8.75;5.55;;;-0.70;78.70;;;;;;4943073;28;20476;-87
2022/03/07 03:51:22;;;;;;;7.25;5.05;;;-0.70;78.80;;;;;;4957368;28;20480;-87
2022/03/07 03:53:48;;;;;;;9.50;5.47;;;-0.70;79.00;;;;;;4956263;28;20129;-88
2022/03/07 03:56:14;;;;;;;6.22;4.95;;;-0.70;79.10;;;;;;4956973;28;20034;-87
2022/03/07 03:58:39;;;;;;;7.38;4.70;;;-0.70;79.10;;;;;;4959763;28;20086;-87
2022/03/07 04:01:05;;;;;;;6.63;5.05;;;-0.70;79.20;;;;;;4955849;28;21845;-84
2022/03/07 04:03:30;;;;;;;8.80;5.35;;;-0.60;79.60;;;;;;4964704;28;20244;-83
2022/03/07 04:05:56;;;;;;;7.60;5.20;;;-0.70;79.50;;;;;;4977007;28;20027;-83
2022/03/07 04:08:22;;;;;;;7.43;4.75;;;-0.60;79.50;;;;;;4969963;28;20032;-87
2022/03/07 04:10:47;;;;;;;6.97;4.80;;;-0.70;79.60;;;;;;4958672;28;20115;-87
2022/03/07 04:13:13;;;;;;;7.45;4.97;;;-0.70;79.60;;;;;;4941887;29;20023;-88
2022/03/07 04:15:39;;;;;;;6.97;5.30;;;-0.70;79.50;;;;;;4958265;29;20043;-88
2022/03/07 04:18:06;;;;;;;7.05;4.60;;;-0.70;79.60;;;;;;4941091;29;20046;-87
2022/03/07 04:20:32;;;;;;;5.78;4.63;;;-0.70;79.80;;;;;;4953630;28;20055;-87
2022/03/07 04:22:58;;;;;;;7.25;4.63;;;-0.70;79.90;;;;;;4937241;28;20045;-87
2022/03/07 04:25:24;;;;;;;6.00;4.68;;;-0.70;79.90;;;;;;4954996;29;20110;-87
2022/03/07 04:27:50;;;;;;;7.82;5.40;;;-0.70;80.00;;;;;;4952713;29;20061;-85
2022/03/07 04:30:15;;;;;;;7.22;5.05;;;-0.70;80.10;;;;;;4953164;28;20046;-86
2022/03/07 04:32:41;;;;;;;8.40;5.07;;;-0.70;80.00;;;;;;4954308;29;20023;-87
2022/03/07 04:35:09;;;;;;;5.53;4.57;;;-0.70;80.10;;;;;;4940363;29;20464;-87
2022/03/07 04:37:35;;;;;;;7.97;4.88;;;-0.70;80.20;;;;;;4937822;29;20147;-87
2022/03/07 04:40:02;;;;;;;7.78;4.22;;;-0.60;80.40;;;;;;4938325;29;20027;-85
2022/03/07 04:42:28;;;;;;;7.63;4.75;;;-0.60;80.30;;;;;;4943794;29;20024;-86
2022/03/07 04:44:53;;;;;;;6.63;4.30;;;-0.60;80.20;;;;;;4953644;29;20034;-88
2022/03/07 04:47:19;;;;;;;7.20;4.25;;;-0.60;80.00;;;;;;4955414;29;20057;-87
2022/03/07 04:49:45;;;;;;;7.72;4.88;;;-0.70;79.90;;;;;;4956892;28;20027;-86
2022/03/07 04:52:10;;;;;;;8.48;4.40;;;-0.70;79.90;;;;;;4955874;28;20082;-87
2022/03/07 04:54:36;;;;;;;6.68;4.57;;;-0.70;79.90;;;;;;4956681;28;20460;-88
2022/03/07 04:57:02;;;;;;;6.35;4.80;;;-0.70;80.00;;;;;;4939232;29;20027;-86
2022/03/07 04:59:27;;;;;;;7.35;4.82;;;-0.70;79.70;;;;;;4939476;29;20031;-88
2022/03/07 05:01:53;;;;;;;7.63;5.57;;;-0.70;79.80;;;;;;4954682;29;20547;-86
2022/03/07 05:04:19;;;;;;;7.32;4.88;;;-0.70;79.90;;;;;;4943175;29;20416;-85
2022/03/07 05:06:44;;;;;;;8.80;5.10;;;-0.70;79.80;;;;;;4960015;28;20027;-88
2022/03/07 05:09:10;;;;;;;6.65;4.80;;;-0.70;79.70;;;;;;4940039;28;20038;-87
2022/03/07 05:11:35;;;;;;;7.47;5.13;;;-0.70;79.80;;;;;;4955623;29;20035;-85
2022/03/07 05:14:01;;;;;;;7.15;4.85;;;-0.80;79.80;;;;;;4954692;29;20035;-86
2022/03/07 05:16:27;;;;;;;8.68;5.28;;;-0.80;80.00;;;;;;4957190;28;20062;-87
2022/03/07 05:18:52;;;;;;;7.95;5.55;;;-0.70;80.10;;;;;;4953991;29;20027;-87
2022/03/07 05:21:18;;;;;;;6.93;4.82;;;-0.80;79.70;;;;;;4937992;29;20031;-86
2022/03/07 05:23:44;;;;;;;7.85;5.13;;;-0.80;80.00;;;;;;4953449;28;20455;-85
2022/03/07 05:26:09;;;;;;;7.63;5.47;;;-0.80;79.70;;;;;;4951176;28;20031;-84
2022/03/07 05:28:35;;;;;;;8.50;4.60;;;-0.80;79.70;;;;;;4970296;28;20077;-87
2022/03/07 05:31:01;;;;;;;7.10;5.10;;;-0.80;79.80;;;;;;4937078;29;20031;-86
2022/03/07 05:33:27;;;;;;;7.80;5.38;;;-0.80;79.90;;;;;;4952119;28;20034;-87
2022/03/07 05:35:53;;;;;;;8.63;4.97;;;-0.90;79.80;;;;;;4933906;29;20372;-86
2022/03/07 05:38:18;;;;;;;9.75;5.57;;;-0.90;79.80;;;;;;4952652;29;20102;-86
2022/03/07 05:40:44;;;;;;;7.70;5.55;;;-0.90;80.00;;;;;;4933566;29;20054;-86
2022/03/07 05:43:10;;;;;;;9.30;5.82;;;-0.90;80.00;;;;;;4929263;29;20055;-85
2022/03/07 05:45:35;;;;;;;9.35;6.20;;;-0.90;80.10;;;;;;4946329;29;20043;-88
2022/03/07 05:48:01;;;;;;;11.70;7.07;;;-0.90;80.10;;;;;;4952043;28;20083;-88
2022/03/07 05:50:26;;;;;;;10.05;6.50;;;-0.90;79.90;;;;;;4936427;29;20027;-88
2022/03/07 05:52:52;;;;;;;11.25;7.13;;;-0.90;80.50;;;;;;4943008;29;20019;-86
2022/03/07 05:55:18;;;;;;;10.70;6.82;;;-0.90;80.10;;;;;;4935318;29;20055;-88
2022/03/07 05:57:43;;;;;;;13.10;7.65;;;-0.90;80.20;;;;;;4952339;28;20037;-87
2022/03/07 06:00:10;;;;;;;10.90;7.45;;;-0.90;80.10;;;;;;4951883;28;20531;-85
2022/03/07 06:02:36;;;;;;;13.40;7.20;;;-0.90;80.30;;;;;;4951685;29;20046;-88
2022/03/07 06:05:03;;;;;;;12.63;7.32;;;-0.90;80.30;;;;;;4949213;28;20726;-86
2022/03/07 06:07:29;;;;;;;10.93;7.35;;;-0.90;80.30;;;;;;4954715;28;20027;-88
2022/03/07 06:09:55;;;;;;;13.07;7.50;;;-0.90;80.30;;;;;;4953965;28;20031;-87
2022/03/07 06:12:21;;;;;;;12.20;7.50;;;-1.00;80.30;;;;;;4948084;29;20028;-87
2022/03/07 06:14:47;;;;;;;13.02;7.78;;;-0.90;80.50;;;;;;4946341;29;20031;-85
2022/03/07 06:17:12;;;;;;;12.52;7.18;;;-0.90;80.60;;;;;;4929896;29;20046;-88
2022/03/07 06:19:38;;;;;;;12.10;7.47;;;-0.90;80.90;;;;;;4949477;29;20027;-87
2022/03/07 06:22:03;;;;;;;12.10;8.05;;;-0.90;80.90;;;;;;4935915;29;20027;-86
2022/03/07 06:24:29;;;;;;;14.48;8.57;;;-0.90;80.90;;;;;;4955422;28;20042;-87
2022/03/07 06:26:56;;;;;;;13.63;8.40;;;-0.90;81.00;;;;;;4951727;28;20051;-85
2022/03/07 06:29:22;;;;;;;12.43;7.53;;;-0.90;81.10;;;;;;4937196;29;20062;-87
2022/03/07 06:31:48;;;;;;;14.98;8.40;;;-0.90;81.20;;;;;;4942495;29;20020;-87
2022/03/07 06:34:14;;;;;;;16.15;8.10;;;-0.80;81.20;;;;;;4937481;29;20027;-87
2022/03/07 06:36:40;;;;;;;14.05;8.38;;;-0.90;81.10;;;;;;4936726;29;20042;-87
2022/03/07 06:39:06;;;;;;;14.05;8.10;;;-0.80;81.10;;;;;;4953253;28;20031;-87
2022/03/07 06:41:32;;;;;;;13.98;8.63;;;-0.80;81.30;;;;;;4954512;29;20151;-86
2022/03/07 06:43:58;;;;;;;12.15;7.50;;;-0.80;81.60;;;;;;4953516;29;20035;-86
2022/03/07 06:46:23;;;;;;;12.80;7.53;;;-0.80;81.50;;;;;;4952478;28;20487;-86
2022/03/07 06:48:49;;;;;;;13.55;8.40;;;-0.80;81.60;;;;;;4954307;29;20043;-87
2022/03/07 06:51:15;;;;;;;14.85;8.18;;;-0.80;81.60;;;;;;4938439;29;20027;-88
2022/03/07 06:53:43;;;;;;;13.45;7.80;;;-0.80;81.60;;;;;;4956667;28;20037;-90
2022/03/07 06:56:20;;;;;;;12.90;7.70;;;-0.70;81.70;;;;;;4973174;28;20022;-87
2022/03/07 06:58:46;;;;;;;12.98;7.80;;;-0.70;81.80;;;;;;4973738;28;20039;-84
2022/03/07 07:01:12;;;;;;;12.07;7.90;;;-0.70;81.70;;;;;;4952114;29;20112;-85
2022/03/07 07:03:37;;;;;;;13.50;8.10;;;-0.70;81.80;;;;;;4958984;28;20031;-85
2022/03/07 07:06:03;;;;;;;16.65;9.18;;;-0.70;82.00;;;;;;4956532;29;20031;-87
2022/03/07 07:08:28;;;;;;;13.38;8.43;;;-0.60;82.00;;;;;;4953964;29;20030;-86
2022/03/07 07:10:54;;;;;;;15.40;8.23;;;-0.60;82.10;;;;;;4935843;29;20039;-86
2022/03/07 07:13:20;;;;;;;13.95;7.82;;;-0.60;82.10;;;;;;4952294;29;20028;-86
2022/03/07 07:15:54;;;;;;;13.05;7.70;;;-0.50;82.10;;;;;;4952637;29;20118;-84
2022/03/07 07:18:19;;;;;;;10.73;7.60;;;-0.50;82.30;;;;;;4951978;29;20031;-87
2022/03/07 07:20:45;;;;;;;12.25;7.93;;;-0.40;82.70;;;;;;4950015;28;20023;-87
2022/03/07 07:23:10;;;;;;;9.95;7.20;;;-0.30;82.30;;;;;;4929014;29;20027;-86
2022/03/07 07:25:36;;;;;;;11.43;6.70;;;-0.30;82.10;;;;;;4949718;28;20047;-87
2022/03/07 07:28:02;;;;;;;10.32;7.40;;;-0.30;82.00;;;;;;4952149;28;20028;-88
2022/03/07 07:30:27;;;;;;;12.02;7.10;;;-0.30;81.90;;;;;;4947452;29;20113;-87
2022/03/07 07:32:53;;;;;;;9.45;6.68;;;-0.20;82.00;;;;;;4952973;29;20034;-86
2022/03/07 07:35:19;;;;;;;11.45;7.28;;;-0.20;81.90;;;;;;4932969;29;20038;-86
2022/03/07 07:37:44;;;;;;;11.90;7.60;;;-0.20;81.80;;;;;;4949757;28;20115;-87
2022/03/07 07:40:10;;;;;;;9.27;6.50;;;-0.10;81.90;;;;;;4951507;28;20136;-87
2022/03/07 07:42:36;;;;;;;10.10;6.70;;;0.00;81.80;;;;;;4953194;29;20031;-88
2022/03/07 07:45:02;;;;;;;12.18;7.15;;;0.00;81.50;;;;;;4949332;29;20059;-87
2022/03/07 07:47:27;;;;;;;9.85;6.80;;;0.00;81.30;;;;;;4943020;29;20027;-87
2022/03/07 07:49:53;;;;;;;11.10;6.95;;;0.10;81.50;;;;;;4954165;28;20023;-86
2022/03/07 07:52:18;;;;;;;7.88;5.63;;;0.20;81.30;;;;;;4958979;28;20046;-88
2022/03/07 07:54:44;;;;;;;8.50;6.15;;;0.30;80.80;;;;;;4939986;28;20499;-86
2022/03/07 07:57:12;;;;;;;11.35;6.43;;;0.50;80.50;;;;;;4954169;28;20085;-87
2022/03/07 07:59:38;;;;;;;8.00;5.82;;;0.80;80.10;;;;;;4955457;28;20027;-87
2022/03/07 08:02:04;;;;;;;8.85;6.22;;;1.00;79.90;;;;;;4954873;29;20057;-86
2022/03/07 08:04:29;;;;;;;9.45;5.82;;;1.60;79.30;;;;;;4968700;28;20061;-86
2022/03/07 08:06:55;;;;;;;8.98;5.75;;;2.10;78.40;;;;;;4958743;28;20034;-87
2022/03/07 08:09:21;;;;;;;8.70;6.20;;;2.30;77.70;;;;;;4939510;29;20031;-87
2022/03/07 08:11:46;;;;;;;7.50;5.60;;;2.50;77.40;;;;;;4953632;29;20507;-87
2022/03/07 08:14:12;;;;;;;9.13;6.07;;;2.90;77.20;;;;;;4955315;29;20154;-87
2022/03/07 08:16:37;;;;;;;8.07;6.05;;;3.00;76.80;;;;;;4953458;29;20059;-87
2022/03/07 08:19:03;;;;;;;8.90;5.93;;;3.20;76.60;;;;;;4954558;28;20042;-86
2022/03/07 08:21:28;;;;;;;8.02;6.22;;;3.30;76.90;;;;;;4954514;28;20102;-85
2022/03/07 08:23:55;;;;;;;7.35;5.75;;;3.60;77.10;;;;;;4961886;28;20058;-87
2022/03/07 08:27:04;;;;;;;8.23;5.78;;;3.80;77.20;;;;;;4981112;28;20036;-90
2022/03/07 08:29:54;;;;;;;7.10;5.78;;;3.80;77.00;;;;;;4963328;28;20043;-91
2022/03/07 08:32:23;;;;;;;7.82;5.88;;;3.80;76.90;;;;;;4952275;29;20027;-92
2022/03/07 08:34:48;;;;;;;7.18;5.97;;;3.90;77.40;;;;;;4939714;29;20027;-88
2022/03/07 08:37:14;;;;;;;7.82;5.85;;;3.90;77.50;;;;;;4939296;29;20126;-88
2022/03/07 08:39:39;;;;;;;6.45;5.60;;;4.00;77.50;;;;;;4939965;29;20034;-88
2022/03/07 08:42:06;;;;;;;7.38;5.50;;;4.00;76.80;;;;;;4957518;29;20030;-87
2022/03/07 08:44:31;;;;;;;6.75;6.00;;;4.00;76.70;;;;;;4956678;28;20035;-87
2022/03/07 08:46:57;;;;;;;8.73;6.43;;;4.10;76.00;;;;;;4956819;29;20035;-88
2022/03/07 08:49:22;;;;;;;7.65;6.00;;;4.20;75.90;;;;;;4967112;28;20031;-84
2022/03/07 08:51:48;;;;;;;6.60;5.78;;;4.20;75.10;;;;;;4959389;29;20165;-88
2022/03/07 08:54:17;;;;;;;7.60;6.20;;;4.30;74.10;;;;;;4944137;29;20035;-88
2022/03/07 08:56:43;;;;;;;7.05;6.10;;;4.20;72.80;;;;;;4962853;28;20023;-87
2022/03/07 08:59:09;;;;;;;8.02;5.90;;;4.10;72.30;;;;;;4966823;28;20034;-84
2022/03/07 09:01:36;;;;;;;9.20;6.40;;;4.10;72.60;;;;;;4965604;28;20031;-84
2022/03/07 09:04:02;;;;;;;8.23;6.82;;;4.10;72.50;;;;;;4947721;29;20039;-85
2022/03/07 09:06:28;;;;;;;9.30;6.38;;;4.10;72.20;;;;;;4957158;29;20030;-87
2022/03/07 09:08:54;;;;;;;7.97;6.55;;;4.20;72.00;;;;;;4955785;29;20023;-87
2022/03/07 09:11:19;;;;;;;8.52;6.28;;;4.20;71.40;;;;;;4957122;28;20027;-85
2022/03/07 09:13:45;;;;;;;9.52;6.80;;;4.20;70.90;;;;;;4954020;29;20518;-86
2022/03/07 09:16:11;;;;;;;10.68;7.00;;;4.20;70.70;;;;;;4937786;29;20058;-87
2022/03/07 09:18:36;;;;;;;9.55;6.72;;;4.10;70.30;;;;;;4954266;29;20042;-87
2022/03/07 09:21:02;;;;;;;9.98;6.43;;;4.10;70.40;;;;;;4953450;28;20027;-85
2022/03/07 09:23:33;;;;;;;9.23;6.40;;;4.00;69.60;;;;;;4952225;29;20039;-86
2022/03/07 09:25:59;;;;;;;10.93;6.32;;;3.90;69.30;;;;;;4952528;29;20488;-85
2022/03/07 09:28:25;;;;;;;8.48;6.55;;;3.90;69.30;;;;;;4945394;29;20035;-86
2022/03/07 09:30:51;;;;;;;11.73;6.97;;;3.90;69.20;;;;;;4944619;28;20042;-86
2022/03/07 09:33:16;;;;;;;10.60;6.68;;;3.90;69.00;;;;;;4954135;28;20023;-85
2022/03/07 09:35:42;;;;;;;8.88;6.55;;;4.00;68.90;;;;;;4937688;29;20038;-85
2022/03/07 09:38:08;;;;;;;9.30;6.65;;;4.00;68.30;;;;;;4958010;29;20051;-85
2022/03/07 09:40:34;;;;;;;9.10;6.45;;;3.90;68.20;;;;;;4937460;29;20422;-85
2022/03/07 09:51:07;;;;;;;8.00;6.90;;;4.00;67.70;;;;;;5766842;23;20495;-89
2022/03/07 09:53:33;;;;;;;8.48;6.50;;;4.00;67.10;;;;;;4998483;28;20027;-87
2022/03/07 09:55:59;;;;;;;9.32;7.05;;;4.00;67.50;;;;;;4977193;28;20034;-85
2022/03/07 09:58:24;;;;;;;9.75;7.38;;;4.10;67.40;;;;;;4976965;28;20049;-87
2022/03/07 10:00:50;;;;;;;8.77;6.97;;;4.10;67.30;;;;;;4980313;28;20034;-88
2022/03/07 10:03:18;;;;;;;8.80;6.40;;;4.20;66.80;;;;;;4968972;28;20026;-86
2022/03/07 10:05:46;;;;;;;9.18;6.90;;;4.10;67.50;;;;;;4959539;28;20030;-88
2022/03/07 10:08:23;;;;;;;10.40;6.78;;;4.20;67.40;;;;;;4964267;28;20019;-88
2022/03/07 10:10:51;;;;;;;10.82;7.07;;;4.30;66.80;;;;;;4958046;28;20098;-87
2022/03/07 10:13:18;;;;;;;10.73;7.22;;;4.30;66.50;;;;;;4958232;28;20513;-88
2022/03/07 10:15:53;;;;;;;11.15;7.20;;;4.30;66.20;;;;;;4957870;28;20118;-85
2022/03/07 10:18:19;;;;;;;7.75;6.43;;;4.30;65.50;;;;;;4975439;28;20510;-85
2022/03/07 10:20:53;;;;;;;8.68;6.70;;;4.20;65.50;;;;;;4974177;28;20043;-86
2022/03/07 10:23:20;;;;;;;9.93;7.47;;;4.20;65.50;;;;;;4971722;28;20034;-86
2022/03/07 10:25:46;;;;;;;9.85;7.03;;;4.30;65.60;;;;;;4978891;28;20142;-87
2022/03/07 10:28:12;;;;;;;11.23;8.20;;;4.30;65.40;;;;;;4959771;28;20066;-86
2022/03/07 10:30:39;;;;;;;9.05;6.45;;;4.30;65.40;;;;;;4959435;28;20505;-85
2022/03/07 10:33:14;;;;;;;7.88;6.15;;;4.30;65.10;;;;;;4956928;28;20483;-87
2022/03/07 10:35:42;;;;;;;9.00;6.82;;;4.30;64.40;;;;;;4957425;28;20035;-87
2022/03/07 10:38:21;;;;;;;9.75;6.97;;;4.30;64.40;;;;;;4956805;28;20114;-87
2022/03/07 10:40:52;;;;;;;8.10;6.60;;;4.30;64.60;;;;;;4993835;23;20047;-85
2022/03/07 10:43:18;;;;;;;10.25;7.25;;;4.30;65.00;;;;;;4940285;29;20075;-86
2022/03/07 10:45:53;;;;;;;10.68;7.60;;;4.40;64.50;;;;;;4947791;29;20062;-86
2022/03/07 10:48:21;;;;;;;9.45;7.75;;;4.40;64.50;;;;;;4956427;29;20037;-86
2022/03/07 10:50:52;;;;;;;9.13;6.93;;;4.40;64.60;;;;;;4955874;28;20091;-86
2022/03/07 10:53:19;;;;;;;9.68;7.20;;;4.40;64.50;;;;;;4957758;29;20054;-86
2022/03/07 10:55:56;;;;;;;12.30;7.25;;;4.40;64.60;;;;;;4939799;29;20095;-86
2022/03/07 10:58:22;;;;;;;9.18;7.55;;;4.40;64.40;;;;;;4921077;29;20035;-86
2022/03/07 11:00:57;;;;;;;9.73;6.85;;;4.40;64.60;;;;;;4957376;29;20055;-85
2022/03/07 11:03:25;;;;;;;9.45;7.38;;;4.40;64.40;;;;;;4957526;29;20043;-85
2022/03/07 11:05:51;;;;;;;10.00;7.78;;;4.30;64.00;;;;;;4956338;29;20091;-85
2022/03/07 11:08:20;;;;;;;10.38;8.00;;;4.30;64.30;;;;;;4955482;29;20016;-86
2022/03/07 11:10:48;;;;;;;11.63;7.88;;;4.30;64.40;;;;;;4937851;29;20031;-86
2022/03/07 11:13:16;;;;;;;10.38;7.90;;;4.30;63.80;;;;;;4936735;29;20024;-86
2022/03/07 11:15:43;;;;;;;10.55;7.82;;;4.20;63.50;;;;;;4932817;29;20143;-85
2022/03/07 11:18:11;;;;;;;11.95;8.07;;;4.20;63.80;;;;;;4934286;29;20039;-85
2022/03/07 11:20:40;;;;;;;8.73;7.25;;;4.20;63.80;;;;;;4934913;29;20028;-85
2022/03/07 11:23:06;;;;;;;10.93;7.75;;;4.20;63.50;;;;;;4938433;29;20028;-84
2022/03/07 11:25:32;;;;;;;9.45;7.72;;;4.20;63.30;;;;;;4938215;29;20506;-86
2022/03/07 11:27:58;;;;;;;10.13;7.88;;;4.30;63.30;;;;;;4938911;29;20038;-85
2022/03/07 11:30:25;;;;;;;10.85;8.40;;;4.30;63.20;;;;;;4939940;29;20106;-86
2022/03/07 11:32:52;;;;;;;14.32;8.45;;;4.40;63.40;;;;;;4938697;29;20031;-86
2022/03/07 11:35:18;;;;;;;11.45;8.20;;;4.40;63.00;;;;;;4937706;29;20111;-86
2022/03/07 11:37:44;;;;;;;11.68;8.68;;;4.40;62.80;;;;;;4936781;29;20038;-85
2022/03/07 11:40:21;;;;;;;10.93;8.45;;;4.40;62.30;;;;;;4938651;29;20115;-85
2022/03/07 11:42:47;;;;;;;10.95;8.10;;;4.40;62.10;;;;;;4941829;29;20031;-85
2022/03/07 11:45:19;;;;;;;11.05;8.02;;;4.50;62.80;;;;;;4927890;29;20028;-86
2022/03/07 11:47:47;;;;;;;9.70;7.78;;;4.60;62.70;;;;;;4932396;29;20503;-86
2022/03/07 11:50:15;;;;;;;10.65;8.50;;;4.60;62.40;;;;;;4934662;29;20088;-86
2022/03/07 11:52:41;;;;;;;10.98;8.43;;;4.70;62.40;;;;;;4935072;29;20030;-87
2022/03/07 11:55:13;;;;;;;10.75;8.20;;;4.70;62.00;;;;;;4936052;29;20378;-86
2022/03/07 11:57:42;;;;;;;11.48;8.07;;;4.70;61.80;;;;;;4936657;29;20127;-85
2022/03/07 12:00:20;;;;;;;12.00;7.90;;;4.70;61.80;;;;;;4936638;29;20031;-87
2022/03/07 12:02:48;;;;;;;12.23;8.30;;;4.70;61.70;;;;;;4937545;29;20135;-85
2022/03/07 12:05:28;;;;;;;12.55;8.25;;;4.80;61.90;;;;;;4935126;29;20036;-86
2022/03/07 12:08:25;;;;;;;11.48;8.50;;;4.80;61.50;;;;;;4937408;29;20113;-86
2022/03/07 12:10:52;;;;;;;11.40;8.70;;;4.90;61.40;;;;;;4934118;29;20050;-86
2022/03/07 12:13:18;;;;;;;11.20;8.45;;;5.00;61.60;;;;;;4937114;29;20059;-86
2022/03/07 12:15:50;;;;;;;12.23;8.50;;;5.10;61.30;;;;;;4926930;29;20082;-87
2022/03/07 12:18:17;;;;;;;11.38;8.85;;;5.10;61.20;;;;;;4937777;29;20031;-86
2022/03/07 12:20:57;;;;;;;12.15;7.75;;;5.20;61.20;;;;;;4941408;28;20616;-86
2022/03/07 12:23:27;;;;;;;10.77;8.02;;;5.20;60.70;;;;;;4940686;29;20027;-85
2022/03/07 12:26:09;;;;;;;11.13;7.80;;;5.20;60.70;;;;;;4939972;29;20040;-85
2022/03/07 12:28:41;;;;;;;10.15;7.95;;;5.20;60.20;;;;;;4942736;29;20054;-85
2022/03/07 12:31:07;;;;;;;11.73;8.40;;;5.20;60.40;;;;;;4938271;29;20055;-85
2022/03/07 12:33:33;;;;;;;10.60;8.05;;;5.30;61.00;;;;;;4938939;29;20035;-85
2022/03/07 12:36:09;;;;;;;12.05;8.45;;;5.20;59.70;;;;;;4938446;29;20032;-85
2022/03/07 12:38:48;;;;;;;11.90;8.23;;;5.20;59.50;;;;;;4937326;29;20408;-86
2022/03/07 12:41:16;;;;;;;10.52;7.57;;;5.10;60.00;;;;;;4936552;29;20094;-85
2022/03/07 12:43:43;;;;;;;12.18;8.43;;;5.20;59.90;;;;;;4938043;29;20580;-86
2022/03/07 12:46:11;;;;;;;11.07;8.05;;;5.20;59.80;;;;;;4938149;29;20400;-85
2022/03/07 12:48:43;;;;;;;10.68;8.23;;;5.20;59.80;;;;;;4938354;29;20417;-86
2022/03/07 12:51:17;;;;;;;10.10;8.43;;;5.30;60.10;;;;;;4937821;29;20646;-85
2022/03/07 12:53:46;;;;;;;11.35;8.25;;;5.40;59.50;;;;;;4937925;29;20059;-85
2022/03/07 12:56:13;;;;;;;9.43;7.78;;;5.40;59.60;;;;;;4948739;29;20051;-85